Time;durP1;ratioP1;P1;durP2;ratioP2;P2;SDS_P1;SDS_P2;PMS_P1;PMS_P2;Temp;Humidity;BMP_temperature;BMP_pressure;BME280_temperature;BME280_humidity;BME280_pressure;Samples;Min_cycle;Max_cycle;Signal;HPM_P1;HPM_P2
2020/12/23 00:00:06;;;;;;;10.70;8.98;;;12.70;96.70;;;;;;4906024;29;20075;-79
2020/12/23 00:02:37;;;;;;;11.40;8.60;;;12.70;96.70;;;;;;4913997;29;20053;-79
2020/12/23 00:05:06;;;;;;;9.80;7.82;;;12.60;96.70;;;;;;4917785;29;20445;-79
2020/12/23 00:07:33;;;;;;;12.90;8.63;;;12.60;96.70;;;;;;4884540;29;20176;-79
2020/12/23 00:10:01;;;;;;;9.65;8.30;;;12.60;96.70;;;;;;4906559;29;21158;-79
2020/12/23 00:12:28;;;;;;;11.35;8.85;;;12.60;96.70;;;;;;4917247;29;20549;-79
2020/12/23 00:14:56;;;;;;;11.35;7.85;;;12.60;96.70;;;;;;4904873;29;20044;-80
2020/12/23 00:17:23;;;;;;;9.98;8.57;;;12.60;96.70;;;;;;4912923;29;20402;-79
2020/12/23 00:19:50;;;;;;;9.82;8.23;;;12.60;96.70;;;;;;4905092;29;20150;-80
2020/12/23 00:22:17;;;;;;;10.88;7.50;;;12.50;96.70;;;;;;4917938;29;20040;-79
2020/12/23 00:24:44;;;;;;;11.82;8.93;;;12.50;96.70;;;;;;4913611;29;20061;-80
2020/12/23 00:27:12;;;;;;;10.52;8.68;;;12.50;96.70;;;;;;4904619;29;20051;-79
2020/12/23 00:29:39;;;;;;;12.23;9.10;;;12.50;96.70;;;;;;4921105;29;20107;-79
2020/12/23 00:32:07;;;;;;;13.55;9.43;;;12.60;96.70;;;;;;4903664;29;20427;-79
2020/12/23 00:34:34;;;;;;;13.00;9.93;;;12.60;96.70;;;;;;4918294;29;20055;-79
2020/12/23 00:37:01;;;;;;;9.73;8.18;;;12.60;96.70;;;;;;4903078;29;20052;-80
2020/12/23 00:39:28;;;;;;;10.02;7.70;;;12.60;96.70;;;;;;4905573;29;20074;-78
2020/12/23 00:41:56;;;;;;;10.75;8.75;;;12.60;96.70;;;;;;4903169;29;20063;-79
2020/12/23 00:44:24;;;;;;;11.00;8.93;;;12.60;96.70;;;;;;4936947;29;20404;-79
2020/12/23 00:46:52;;;;;;;9.75;8.10;;;12.60;96.70;;;;;;4905271;29;20130;-79
2020/12/23 00:49:21;;;;;;;9.93;8.80;;;12.60;96.70;;;;;;4904551;29;20040;-79
2020/12/23 00:51:50;;;;;;;8.70;7.78;;;12.60;96.70;;;;;;4904984;29;20703;-79
2020/12/23 00:54:17;;;;;;;9.95;7.43;;;12.60;96.70;;;;;;4919503;29;20080;-80
2020/12/23 00:56:45;;;;;;;9.55;8.55;;;12.60;96.70;;;;;;4903073;29;20060;-78
2020/12/23 00:59:12;;;;;;;10.30;7.70;;;12.60;96.70;;;;;;4904534;29;20562;-79
2020/12/23 01:01:39;;;;;;;8.95;7.75;;;12.60;96.70;;;;;;4917836;29;20036;-79
2020/12/23 01:04:06;;;;;;;9.32;7.60;;;12.60;96.70;;;;;;4920520;29;20127;-79
2020/12/23 01:06:35;;;;;;;9.32;8.23;;;12.60;96.70;;;;;;4905392;29;20247;-79
2020/12/23 01:09:02;;;;;;;9.13;8.23;;;12.60;96.70;;;;;;4902244;29;20052;-79
2020/12/23 01:11:30;;;;;;;9.27;8.10;;;12.60;96.70;;;;;;4903881;29;20036;-79
2020/12/23 01:13:57;;;;;;;9.02;8.10;;;12.70;96.70;;;;;;4932532;28;20095;-79
2020/12/23 01:16:24;;;;;;;10.45;9.20;;;12.70;96.70;;;;;;4901238;29;20273;-79
2020/12/23 01:18:52;;;;;;;10.35;8.90;;;12.70;96.70;;;;;;4918172;29;20036;-79
2020/12/23 01:21:19;;;;;;;9.45;8.45;;;12.70;96.70;;;;;;4904241;29;20054;-80
2020/12/23 01:23:47;;;;;;;10.32;8.98;;;12.70;96.70;;;;;;4917555;29;20052;-79
2020/12/23 01:26:14;;;;;;;12.15;9.48;;;12.70;96.70;;;;;;4902988;29;20513;-79
2020/12/23 01:28:44;;;;;;;10.85;9.85;;;12.80;96.70;;;;;;4905384;29;20040;-79
2020/12/23 01:31:11;;;;;;;9.93;8.77;;;12.80;96.70;;;;;;4931766;29;20562;-79
2020/12/23 01:33:39;;;;;;;9.52;8.63;;;12.80;96.70;;;;;;4908458;29;20052;-79
2020/12/23 01:36:08;;;;;;;9.38;8.40;;;12.80;96.70;;;;;;4918168;29;20138;-79
2020/12/23 01:38:35;;;;;;;12.20;9.48;;;12.90;96.70;;;;;;4916901;29;20043;-79
2020/12/23 01:41:05;;;;;;;10.88;8.38;;;12.90;96.70;;;;;;4920520;29;20135;-79
2020/12/23 01:43:33;;;;;;;9.85;8.25;;;12.90;96.70;;;;;;4899420;29;20059;-79
2020/12/23 01:46:00;;;;;;;10.43;8.45;;;12.90;96.70;;;;;;4904220;29;20048;-79
2020/12/23 01:48:30;;;;;;;10.93;8.52;;;12.90;96.70;;;;;;4892572;29;20064;-79
2020/12/23 01:51:00;;;;;;;9.45;8.38;;;12.90;96.70;;;;;;4905079;29;20126;-80
2020/12/23 01:53:27;;;;;;;12.57;11.38;;;12.90;96.70;;;;;;4916433;29;20372;-80
2020/12/23 01:55:57;;;;;;;10.68;9.57;;;12.90;96.70;;;;;;4904452;29;20064;-80
2020/12/23 01:58:26;;;;;;;11.02;9.93;;;12.90;96.70;;;;;;4914469;29;20421;-80
2020/12/23 02:00:54;;;;;;;11.63;9.15;;;12.90;96.70;;;;;;4904215;29;20697;-80
2020/12/23 02:03:21;;;;;;;10.57;9.48;;;12.90;96.70;;;;;;4916018;29;20619;-80
2020/12/23 02:05:50;;;;;;;10.55;9.45;;;12.90;96.70;;;;;;4903448;29;20050;-80
2020/12/23 02:08:19;;;;;;;11.70;10.50;;;12.90;96.70;;;;;;4915187;29;20151;-80
2020/12/23 02:10:49;;;;;;;11.43;10.23;;;12.90;96.70;;;;;;4903507;29;20059;-80
2020/12/23 02:13:36;;;;;;;11.35;10.15;;;12.90;96.70;;;;;;4904150;29;20052;-80
2020/12/23 02:16:04;;;;;;;9.77;8.75;;;12.90;96.70;;;;;;4933917;28;20570;-80
2020/12/23 02:18:32;;;;;;;10.65;9.55;;;12.90;96.70;;;;;;4903499;29;20064;-80
2020/12/23 02:20:59;;;;;;;9.75;8.75;;;12.90;96.70;;;;;;4934407;28;20139;-80
2020/12/23 02:23:27;;;;;;;9.75;8.80;;;12.90;96.70;;;;;;4903889;29;20047;-80
2020/12/23 02:25:55;;;;;;;12.57;9.02;;;12.90;96.70;;;;;;4918314;29;20048;-79
2020/12/23 02:28:22;;;;;;;9.55;8.48;;;12.80;96.70;;;;;;4919259;29;20044;-79
2020/12/23 02:30:49;;;;;;;12.00;9.07;;;12.80;96.70;;;;;;4935927;28;20447;-79
2020/12/23 02:33:17;;;;;;;10.85;8.85;;;12.80;96.70;;;;;;4918596;28;20048;-80
2020/12/23 02:35:45;;;;;;;10.90;9.13;;;12.80;96.70;;;;;;4907150;29;20079;-81
2020/12/23 02:38:12;;;;;;;11.02;9.63;;;12.80;96.70;;;;;;4935322;28;20067;-81
2020/12/23 02:40:40;;;;;;;11.00;9.73;;;12.80;96.70;;;;;;4900447;29;20601;-81
2020/12/23 02:43:07;;;;;;;9.80;8.80;;;12.80;96.70;;;;;;4902964;29;20119;-82
2020/12/23 02:45:34;;;;;;;10.52;9.43;;;12.80;96.70;;;;;;4903606;29;20117;-82
2020/12/23 02:48:02;;;;;;;10.32;9.20;;;12.80;96.70;;;;;;4905290;29;20641;-81
2020/12/23 02:50:29;;;;;;;11.25;10.15;;;12.80;96.70;;;;;;4903859;29;20443;-82
2020/12/23 02:52:56;;;;;;;12.38;9.75;;;12.80;96.70;;;;;;4936292;28;20046;-82
2020/12/23 02:55:24;;;;;;;11.73;10.13;;;12.80;96.70;;;;;;4905212;29;20475;-81
2020/12/23 02:57:52;;;;;;;12.65;9.85;;;12.80;96.70;;;;;;4889444;29;20036;-81
2020/12/23 03:00:19;;;;;;;10.18;9.18;;;12.80;96.70;;;;;;4916930;29;20048;-82
2020/12/23 03:02:46;;;;;;;10.93;9.82;;;12.80;96.70;;;;;;4894955;29;20040;-81
2020/12/23 03:05:13;;;;;;;9.60;8.45;;;12.80;96.70;;;;;;4901287;29;20513;-81
2020/12/23 03:07:40;;;;;;;10.85;8.90;;;12.80;96.70;;;;;;4905289;29;20694;-82
2020/12/23 03:10:08;;;;;;;10.07;9.05;;;12.70;96.70;;;;;;4920686;29;20043;-81
2020/12/23 03:12:35;;;;;;;11.25;9.40;;;12.80;96.70;;;;;;4891102;29;20045;-81
2020/12/23 03:15:04;;;;;;;12.82;9.45;;;12.80;96.70;;;;;;4904127;29;20497;-82
2020/12/23 03:17:31;;;;;;;9.40;8.48;;;12.70;96.70;;;;;;4908509;29;20094;-80
2020/12/23 03:19:58;;;;;;;11.32;8.48;;;12.70;96.70;;;;;;4907068;29;20090;-80
2020/12/23 03:22:25;;;;;;;9.73;8.75;;;12.70;96.70;;;;;;4938964;28;20163;-80
2020/12/23 03:24:52;;;;;;;9.95;8.57;;;12.70;96.70;;;;;;4906281;29;20070;-80
2020/12/23 03:27:20;;;;;;;10.82;9.57;;;12.70;96.70;;;;;;4909321;29;20593;-80
2020/12/23 03:29:47;;;;;;;11.38;9.73;;;12.70;96.70;;;;;;4908420;29;20404;-80
2020/12/23 03:32:15;;;;;;;11.60;9.32;;;12.70;96.70;;;;;;4902106;29;20062;-80
2020/12/23 03:34:42;;;;;;;10.05;8.07;;;12.70;96.70;;;;;;4904792;29;20088;-80
2020/12/23 03:37:09;;;;;;;11.30;9.23;;;12.60;96.70;;;;;;4905723;29;20052;-80
2020/12/23 03:39:36;;;;;;;10.90;8.95;;;12.60;96.70;;;;;;4914210;29;20048;-81
2020/12/23 03:42:03;;;;;;;11.23;9.68;;;12.60;96.70;;;;;;4906336;29;20499;-81
2020/12/23 03:44:31;;;;;;;10.10;8.85;;;12.60;96.70;;;;;;4907596;29;20036;-80
2020/12/23 03:46:58;;;;;;;11.02;9.45;;;12.60;96.70;;;;;;4915379;29;20064;-80
2020/12/23 03:49:26;;;;;;;11.60;8.70;;;12.60;96.70;;;;;;4921361;29;20538;-80
2020/12/23 03:51:54;;;;;;;11.88;10.38;;;12.60;96.70;;;;;;4935439;28;20051;-80
2020/12/23 03:54:21;;;;;;;11.20;9.45;;;12.60;96.70;;;;;;4906219;29;20088;-80
2020/12/23 03:56:48;;;;;;;14.20;10.40;;;12.60;96.70;;;;;;4921895;29;20042;-80
2020/12/23 03:59:15;;;;;;;11.68;9.75;;;12.50;96.70;;;;;;4905998;29;20051;-80
2020/12/23 04:01:42;;;;;;;10.45;9.35;;;12.60;96.70;;;;;;4904099;29;20546;-80
2020/12/23 04:04:09;;;;;;;11.50;10.32;;;12.60;96.70;;;;;;4905881;29;20044;-80
2020/12/23 04:06:37;;;;;;;13.45;9.88;;;12.50;96.70;;;;;;4917989;29;20511;-81
2020/12/23 04:09:04;;;;;;;11.60;10.20;;;12.50;96.70;;;;;;4906638;29;20078;-80
2020/12/23 04:11:31;;;;;;;14.32;10.50;;;12.50;96.70;;;;;;4902604;29;20116;-80
2020/12/23 04:13:59;;;;;;;14.05;11.20;;;12.50;96.70;;;;;;4904063;29;20046;-80
2020/12/23 04:16:26;;;;;;;13.05;11.38;;;12.50;96.70;;;;;;4906394;29;20044;-80
2020/12/23 04:18:53;;;;;;;13.77;10.80;;;12.50;96.70;;;;;;4903251;29;20041;-81
2020/12/23 04:21:20;;;;;;;13.90;11.77;;;12.50;96.70;;;;;;4904126;29;20096;-80
2020/12/23 04:23:48;;;;;;;12.18;10.68;;;12.50;96.70;;;;;;4937534;28;20048;-80
2020/12/23 04:26:15;;;;;;;14.82;11.95;;;12.50;96.70;;;;;;4888196;29;20462;-80
2020/12/23 04:28:42;;;;;;;15.35;11.27;;;12.50;96.70;;;;;;4906151;29;20051;-80
2020/12/23 04:31:09;;;;;;;12.85;11.38;;;12.40;96.70;;;;;;4914469;29;20131;-80
2020/12/23 04:33:37;;;;;;;13.05;10.98;;;12.40;96.70;;;;;;4906080;29;20134;-80
2020/12/23 04:36:04;;;;;;;14.73;11.38;;;12.40;96.70;;;;;;4935879;28;20040;-80
2020/12/23 04:38:31;;;;;;;13.13;11.27;;;12.40;96.70;;;;;;4905200;29;20051;-80
2020/12/23 04:40:59;;;;;;;13.10;10.90;;;12.40;96.70;;;;;;4902964;29;21238;-80
2020/12/23 04:43:26;;;;;;;14.60;11.45;;;12.40;96.70;;;;;;4921480;29;20040;-81
2020/12/23 04:45:54;;;;;;;11.70;10.35;;;12.40;96.70;;;;;;4904757;29;20076;-80
2020/12/23 04:48:25;;;;;;;13.00;10.77;;;12.40;96.70;;;;;;4904115;29;20048;-81
2020/12/23 04:50:55;;;;;;;12.13;10.80;;;12.40;96.70;;;;;;4887465;29;20103;-80
2020/12/23 04:53:22;;;;;;;13.13;10.23;;;12.40;96.70;;;;;;4936626;29;20044;-80
2020/12/23 04:55:49;;;;;;;12.85;10.60;;;12.40;96.70;;;;;;4921722;29;20476;-80
2020/12/23 04:58:17;;;;;;;11.65;10.13;;;12.40;96.70;;;;;;4903774;29;20052;-80
2020/12/23 05:00:45;;;;;;;14.30;10.98;;;12.40;96.70;;;;;;4907294;29;20036;-80
2020/12/23 05:03:12;;;;;;;11.80;9.98;;;12.40;96.70;;;;;;4905152;29;20095;-80
2020/12/23 05:05:39;;;;;;;14.60;11.20;;;12.40;96.70;;;;;;4904801;29;20075;-80
2020/12/23 05:08:06;;;;;;;12.60;9.70;;;12.40;96.70;;;;;;4904895;29;20134;-80
2020/12/23 05:10:33;;;;;;;12.73;10.57;;;12.40;96.70;;;;;;4916014;29;20076;-81
2020/12/23 05:13:00;;;;;;;12.07;10.15;;;12.40;96.70;;;;;;4921713;28;20080;-81
2020/12/23 05:15:29;;;;;;;12.07;10.13;;;12.40;96.70;;;;;;4905424;29;20435;-82
2020/12/23 05:17:56;;;;;;;13.50;10.98;;;12.40;96.70;;;;;;4918050;29;20106;-81
2020/12/23 05:20:24;;;;;;;16.02;13.30;;;12.40;96.70;;;;;;4933146;29;20060;-82
2020/12/23 05:22:52;;;;;;;14.45;12.55;;;12.40;96.70;;;;;;4918936;29;20105;-81
2020/12/23 05:25:19;;;;;;;17.80;12.82;;;12.40;96.70;;;;;;4907836;29;20056;-81
2020/12/23 05:27:49;;;;;;;14.00;11.50;;;12.40;96.70;;;;;;4906009;29;20615;-81
2020/12/23 05:30:18;;;;;;;14.10;10.60;;;12.40;96.70;;;;;;4893610;29;20100;-81
2020/12/23 05:32:47;;;;;;;11.45;9.85;;;12.40;96.70;;;;;;4901703;29;20380;-81
2020/12/23 05:35:15;;;;;;;14.20;10.23;;;12.40;96.70;;;;;;4936687;28;20050;-82
2020/12/23 05:37:43;;;;;;;10.43;9.25;;;12.40;96.70;;;;;;4917572;29;20040;-82
2020/12/23 05:40:10;;;;;;;10.40;9.15;;;12.40;96.70;;;;;;4906301;29;20032;-81
2020/12/23 05:42:39;;;;;;;10.75;9.15;;;12.40;96.70;;;;;;4903508;29;20047;-81
2020/12/23 05:45:08;;;;;;;11.85;9.35;;;12.40;96.70;;;;;;4904885;29;20060;-81
2020/12/23 05:47:36;;;;;;;14.20;10.05;;;12.40;96.70;;;;;;4904194;29;20048;-81
2020/12/23 05:50:10;;;;;;;11.48;8.90;;;12.40;96.70;;;;;;4928953;28;20595;-81
2020/12/23 05:52:37;;;;;;;12.15;9.45;;;12.40;96.70;;;;;;4905837;29;20047;-81
2020/12/23 05:55:15;;;;;;;10.70;9.32;;;12.40;96.70;;;;;;4903375;29;20040;-81
2020/12/23 05:57:42;;;;;;;11.40;9.25;;;12.40;96.70;;;;;;4901552;29;20051;-81
2020/12/23 06:00:09;;;;;;;11.15;9.15;;;12.40;96.70;;;;;;4887729;29;20512;-81
2020/12/23 06:03:04;;;;;;;10.88;8.68;;;12.40;96.70;;;;;;4905789;29;20070;-81
2020/12/23 06:05:33;;;;;;;11.35;8.52;;;12.40;96.70;;;;;;4904743;29;20048;-80
2020/12/23 06:08:03;;;;;;;12.07;9.27;;;12.40;96.70;;;;;;4934607;28;20044;-81
2020/12/23 06:10:36;;;;;;;11.27;9.00;;;12.40;96.70;;;;;;4920317;29;20048;-80
2020/12/23 06:13:11;;;;;;;11.35;9.52;;;12.40;96.70;;;;;;4920219;29;20149;-80
2020/12/23 06:15:41;;;;;;;10.13;8.68;;;12.30;96.70;;;;;;4917515;29;20967;-81
2020/12/23 06:18:15;;;;;;;9.75;8.30;;;12.30;96.70;;;;;;4935672;28;20050;-80
2020/12/23 06:20:44;;;;;;;12.90;8.98;;;12.30;96.70;;;;;;4904448;29;20048;-80
2020/12/23 06:23:25;;;;;;;10.50;8.88;;;12.30;96.70;;;;;;4897728;29;20047;-80
2020/12/23 06:25:52;;;;;;;11.98;8.50;;;12.30;96.70;;;;;;4903395;29;20040;-81
2020/12/23 06:28:22;;;;;;;10.50;8.38;;;12.30;96.70;;;;;;4903144;29;20047;-80
2020/12/23 06:30:51;;;;;;;11.60;9.27;;;12.20;96.70;;;;;;4914516;29;20040;-80
2020/12/23 06:33:19;;;;;;;12.23;9.98;;;12.30;96.70;;;;;;4882253;29;20049;-80
2020/12/23 06:35:47;;;;;;;11.15;9.93;;;12.30;96.70;;;;;;4918076;29;20067;-80
2020/12/23 06:38:22;;;;;;;11.90;9.73;;;12.30;96.70;;;;;;4918641;29;20163;-80
2020/12/23 06:40:58;;;;;;;12.05;10.20;;;12.40;96.70;;;;;;4905749;29;20044;-80
2020/12/23 06:43:55;;;;;;;10.73;9.63;;;12.40;96.70;;;;;;4906490;29;20845;-80
2020/12/23 06:46:22;;;;;;;12.65;11.38;;;12.40;96.70;;;;;;4908352;29;20617;-80
2020/12/23 06:48:49;;;;;;;11.85;9.38;;;12.40;96.70;;;;;;4937832;28;20048;-80
2020/12/23 06:51:40;;;;;;;8.77;7.88;;;12.40;96.70;;;;;;4907250;29;20146;-80
2020/12/23 06:54:07;;;;;;;10.60;8.77;;;12.40;96.70;;;;;;4937946;28;20086;-80
2020/12/23 06:56:49;;;;;;;11.10;8.27;;;12.40;96.70;;;;;;4908828;29;20040;-80
2020/12/23 06:59:45;;;;;;;9.77;8.65;;;12.40;96.70;;;;;;4929233;28;20526;-79
2020/12/23 07:02:14;;;;;;;12.27;9.18;;;12.40;96.70;;;;;;4907232;29;20608;-80
2020/12/23 07:04:48;;;;;;;12.93;9.10;;;12.40;96.70;;;;;;4899578;29;20036;-78
2020/12/23 07:07:34;;;;;;;11.65;8.32;;;12.40;96.70;;;;;;4906246;29;20119;-79
2020/12/23 07:10:16;;;;;;;9.45;8.38;;;12.40;96.70;;;;;;4921178;29;20061;-80
2020/12/23 07:12:47;;;;;;;10.20;8.63;;;12.40;96.70;;;;;;4937013;28;20044;-80
2020/12/23 07:15:19;;;;;;;10.95;8.88;;;12.40;96.70;;;;;;4907336;29;20036;-82
2020/12/23 07:17:47;;;;;;;9.30;8.38;;;12.40;96.70;;;;;;4907275;29;20579;-80
2020/12/23 07:20:14;;;;;;;10.50;9.18;;;12.40;96.70;;;;;;4907398;29;20124;-81
2020/12/23 07:22:47;;;;;;;10.30;8.50;;;12.40;96.70;;;;;;4921599;29;20159;-81
2020/12/23 07:25:18;;;;;;;10.10;8.30;;;12.50;96.70;;;;;;4916975;29;20086;-81
2020/12/23 07:27:46;;;;;;;10.40;9.13;;;12.50;96.70;;;;;;4908614;29;20047;-80
2020/12/23 07:30:14;;;;;;;231.93;173.20;;;12.50;96.70;;;;;;4906080;29;20135;-82
2020/12/23 07:32:41;;;;;;;48.40;36.13;;;12.50;96.70;;;;;;4919677;29;20122;-81
2020/12/23 07:35:09;;;;;;;23.90;17.65;;;12.60;96.70;;;;;;4901968;29;20052;-83
2020/12/23 07:37:49;;;;;;;15.38;12.80;;;12.60;96.70;;;;;;4935000;28;20044;-84
2020/12/23 09:19:51;;;;;;;14.25;11.05;;;13.40;96.70;;;;;;5087108;27;20763;-81
2020/12/23 09:22:29;;;;;;;13.38;10.27;;;13.40;96.70;;;;;;5077456;28;20044;-80
2020/12/23 09:25:20;;;;;;;12.73;10.43;;;13.40;96.70;;;;;;5078777;28;20332;-84
2020/12/23 09:27:49;;;;;;;14.07;11.25;;;13.40;96.70;;;;;;5079079;28;20116;-83
2020/12/23 09:30:30;;;;;;;14.10;10.70;;;13.40;96.70;;;;;;5068360;28;20044;-84
2020/12/23 09:32:58;;;;;;;13.25;9.10;;;13.40;96.70;;;;;;5089179;28;20047;-84
2020/12/23 09:35:27;;;;;;;11.88;8.07;;;13.40;96.70;;;;;;5064521;28;20044;-84
2020/12/23 09:38:11;;;;;;;13.98;11.35;;;13.40;96.70;;;;;;5076607;28;20054;-85
2020/12/23 09:40:40;;;;;;;26.75;20.38;;;13.40;96.70;;;;;;5081331;28;20475;-85
2020/12/23 09:43:10;;;;;;;38.90;29.70;;;13.40;96.70;;;;;;5078896;28;20048;-86
2020/12/23 09:45:38;;;;;;;45.45;34.47;;;13.40;96.70;;;;;;5052448;28;20045;-84
2020/12/23 09:48:05;;;;;;;27.75;22.25;;;13.40;96.70;;;;;;5063933;28;20076;-84
2020/12/23 09:50:34;;;;;;;9.60;7.60;;;13.40;96.70;;;;;;5077964;28;20040;-83
2020/12/23 09:53:01;;;;;;;14.30;8.45;;;13.40;96.70;;;;;;5082750;28;20501;-84
2020/12/23 09:55:29;;;;;;;12.80;8.25;;;13.40;96.70;;;;;;5076255;28;20037;-85
2020/12/23 09:57:57;;;;;;;13.25;9.27;;;13.40;96.70;;;;;;5076197;28;20036;-84
2020/12/23 10:00:27;;;;;;;14.95;8.30;;;13.40;96.70;;;;;;5078079;28;20036;-84
2020/12/23 10:02:54;;;;;;;12.25;7.60;;;13.40;96.70;;;;;;5080547;28;20559;-84
2020/12/23 10:05:22;;;;;;;12.23;7.88;;;13.50;96.70;;;;;;5076593;28;20040;-85
2020/12/23 10:07:50;;;;;;;9.00;6.50;;;13.50;96.70;;;;;;5075040;28;20040;-84
2020/12/23 10:10:17;;;;;;;12.20;7.93;;;13.50;96.70;;;;;;5076275;28;20538;-84
2020/12/23 10:12:45;;;;;;;12.52;7.18;;;13.50;96.70;;;;;;5082276;28;20055;-84
2020/12/23 10:15:12;;;;;;;16.60;8.20;;;13.50;96.70;;;;;;5075387;28;20115;-84
2020/12/23 10:17:40;;;;;;;15.35;9.30;;;13.50;96.70;;;;;;5071130;28;20060;-84
2020/12/23 10:20:08;;;;;;;11.80;7.25;;;13.50;96.70;;;;;;5070578;28;20051;-85
2020/12/23 10:22:36;;;;;;;8.77;6.03;;;13.50;96.70;;;;;;5066062;28;20040;-84
2020/12/23 10:25:05;;;;;;;7.20;4.97;;;13.40;96.70;;;;;;5074515;28;20040;-84
2020/12/23 10:27:33;;;;;;;5.78;4.13;;;13.40;96.70;;;;;;5075134;28;20040;-81
2020/12/23 10:30:01;;;;;;;8.88;5.32;;;13.40;96.70;;;;;;5061437;28;20256;-84
2020/12/23 10:32:29;;;;;;;8.50;5.85;;;13.40;96.70;;;;;;5062066;28;21114;-84
2020/12/23 10:34:57;;;;;;;11.43;7.55;;;13.40;96.70;;;;;;5058619;28;20041;-84
2020/12/23 10:37:25;;;;;;;8.82;6.57;;;13.40;96.70;;;;;;5067930;28;20533;-84
2020/12/23 10:39:56;;;;;;;8.55;6.00;;;13.40;96.70;;;;;;5064146;28;20048;-85
2020/12/23 10:42:27;;;;;;;7.68;5.70;;;13.50;96.70;;;;;;5046668;28;20195;-82
2020/12/23 10:44:54;;;;;;;8.80;6.80;;;13.50;96.70;;;;;;5060714;28;20044;-84
2020/12/23 10:47:30;;;;;;;6.25;5.15;;;13.50;96.70;;;;;;5071753;28;20044;-84
2020/12/23 10:49:58;;;;;;;6.90;5.20;;;13.50;96.70;;;;;;5054242;28;20067;-83
2020/12/23 10:52:27;;;;;;;6.93;6.22;;;13.50;96.70;;;;;;5065115;28;20513;-82
2020/12/23 10:54:55;;;;;;;8.15;6.47;;;13.50;96.70;;;;;;5043408;28;20065;-83
2020/12/23 10:57:22;;;;;;;9.98;8.95;;;13.50;96.70;;;;;;5061238;28;20133;-83
2020/12/23 10:59:51;;;;;;;11.38;9.93;;;13.50;96.70;;;;;;5061504;28;20502;-84
2020/12/23 11:02:18;;;;;;;9.18;7.25;;;13.40;96.70;;;;;;5061923;28;20473;-82
2020/12/23 11:04:46;;;;;;;8.57;7.68;;;13.40;96.70;;;;;;5060325;28;20071;-84
2020/12/23 11:07:14;;;;;;;7.07;6.38;;;13.40;96.70;;;;;;5060515;28;20593;-83
2020/12/23 11:09:41;;;;;;;14.60;11.48;;;13.40;96.70;;;;;;5066640;28;20041;-84
2020/12/23 11:12:09;;;;;;;4.85;4.38;;;13.50;96.70;;;;;;5061706;28;20235;-84
2020/12/23 11:14:36;;;;;;;3.92;3.53;;;13.50;96.70;;;;;;5063680;28;20051;-84
2020/12/23 11:17:04;;;;;;;4.65;4.00;;;13.50;96.70;;;;;;5046772;28;20238;-83
2020/12/23 11:19:33;;;;;;;4.75;3.63;;;13.50;96.70;;;;;;5064402;28;20517;-84
2020/12/23 11:22:00;;;;;;;4.30;3.75;;;13.50;96.70;;;;;;5063064;28;20044;-83
2020/12/23 11:24:28;;;;;;;3.58;3.28;;;13.50;96.70;;;;;;5065182;28;20122;-83
2020/12/23 11:26:55;;;;;;;4.28;3.88;;;13.50;96.70;;;;;;5062027;28;20067;-84
2020/12/23 11:29:23;;;;;;;3.88;3.50;;;13.50;96.70;;;;;;5060738;28;20040;-84
2020/12/23 11:31:51;;;;;;;5.82;4.38;;;13.50;96.70;;;;;;5055778;28;20036;-83
2020/12/23 11:34:19;;;;;;;5.05;4.30;;;13.50;96.70;;;;;;5059023;28;20057;-83
2020/12/23 11:36:59;;;;;;;5.30;4.18;;;13.50;96.70;;;;;;5063987;28;20044;-83
2020/12/23 11:39:27;;;;;;;6.03;4.90;;;13.50;96.70;;;;;;5061933;28;20106;-83
2020/12/23 11:41:55;;;;;;;6.35;5.25;;;13.50;96.70;;;;;;5059413;28;20047;-84
2020/12/23 11:44:23;;;;;;;6.35;4.35;;;13.50;96.70;;;;;;5051560;28;20552;-83
2020/12/23 11:46:50;;;;;;;4.43;4.00;;;13.50;96.70;;;;;;5062818;28;20045;-83
2020/12/23 11:49:19;;;;;;;4.70;4.20;;;13.50;96.70;;;;;;5059737;28;20071;-83
2020/12/23 11:51:47;;;;;;;4.90;4.40;;;13.50;96.70;;;;;;5044437;28;20032;-82
2020/12/23 11:54:14;;;;;;;3.30;3.00;;;13.50;96.70;;;;;;5053831;28;20067;-84
2020/12/23 11:56:43;;;;;;;4.72;3.60;;;13.50;96.70;;;;;;5064609;28;20037;-83
2020/12/23 11:59:11;;;;;;;4.00;3.22;;;13.60;96.70;;;;;;5060080;28;20039;-83
2020/12/23 12:01:38;;;;;;;4.35;2.67;;;13.60;96.70;;;;;;5052940;28;20044;-83
2020/12/23 12:04:06;;;;;;;4.25;2.58;;;13.60;96.70;;;;;;5046059;28;20037;-83
2020/12/23 12:06:34;;;;;;;2.88;2.60;;;13.60;96.70;;;;;;5062385;28;20040;-83
2020/12/23 12:09:02;;;;;;;2.50;2.30;;;13.60;96.70;;;;;;5062083;28;20048;-83
2020/12/23 12:11:29;;;;;;;4.53;2.20;;;13.60;96.70;;;;;;5059660;28;20055;-82
2020/12/23 12:13:56;;;;;;;4.65;2.40;;;13.50;96.70;;;;;;5061841;28;20145;-83
2020/12/23 12:16:24;;;;;;;3.08;2.75;;;13.50;96.70;;;;;;5043746;28;20044;-83
2020/12/23 12:18:54;;;;;;;6.13;2.78;;;13.50;96.70;;;;;;5043189;28;20049;-84
2020/12/23 12:21:26;;;;;;;4.22;2.92;;;13.50;96.70;;;;;;5045491;28;20064;-83
2020/12/23 12:23:54;;;;;;;2.72;2.10;;;13.60;96.70;;;;;;5061295;28;20048;-83
2020/12/23 12:26:29;;;;;;;2.45;2.25;;;13.60;96.70;;;;;;5057955;28;20036;-85
2020/12/23 12:28:57;;;;;;;5.90;3.42;;;13.60;96.70;;;;;;5053361;28;20048;-84
2020/12/23 12:31:25;;;;;;;5.85;4.18;;;13.60;96.70;;;;;;5059027;28;20036;-83
2020/12/23 12:33:52;;;;;;;4.88;2.72;;;13.60;96.70;;;;;;5058182;28;20121;-84
2020/12/23 12:36:21;;;;;;;5.68;2.90;;;13.60;96.70;;;;;;5042267;28;20573;-84
2020/12/23 12:38:48;;;;;;;2.55;2.35;;;13.60;96.70;;;;;;5057316;28;20044;-82
2020/12/23 12:41:23;;;;;;;4.63;2.50;;;13.60;96.70;;;;;;5042141;28;20107;-84
2020/12/23 12:43:51;;;;;;;4.65;2.47;;;13.60;96.70;;;;;;5062158;28;20045;-84
2020/12/23 12:46:18;;;;;;;6.78;2.40;;;13.60;96.70;;;;;;5062350;28;20044;-84
2020/12/23 12:48:45;;;;;;;6.32;3.63;;;13.60;96.70;;;;;;5059451;28;20147;-84
2020/12/23 12:51:13;;;;;;;6.03;4.28;;;13.70;96.70;;;;;;5061655;28;20051;-83
2020/12/23 12:53:40;;;;;;;10.27;5.75;;;13.70;96.70;;;;;;5059595;28;20513;-84
2020/12/23 12:56:08;;;;;;;5.25;4.15;;;13.70;96.70;;;;;;5044733;28;20040;-83
2020/12/23 12:58:36;;;;;;;5.13;4.10;;;13.70;96.70;;;;;;5053967;28;20045;-84
2020/12/23 13:01:03;;;;;;;4.65;3.72;;;13.70;96.70;;;;;;5044395;28;20364;-84
2020/12/23 13:03:31;;;;;;;4.40;3.35;;;13.70;96.70;;;;;;5058059;28;20070;-83
2020/12/23 13:05:59;;;;;;;6.05;3.13;;;13.70;96.70;;;;;;5060276;28;20040;-84
2020/12/23 13:08:28;;;;;;;4.80;3.20;;;13.70;96.70;;;;;;5057356;28;20127;-84
2020/12/23 13:10:55;;;;;;;6.53;4.18;;;13.70;96.70;;;;;;5062342;28;20123;-84
2020/12/23 13:13:22;;;;;;;4.65;4.00;;;13.70;96.70;;;;;;5055107;28;20069;-84
2020/12/23 13:15:51;;;;;;;5.90;3.80;;;13.70;96.70;;;;;;5060070;28;20379;-83
2020/12/23 13:18:18;;;;;;;3.83;3.17;;;13.70;96.70;;;;;;5076947;28;20583;-84
2020/12/23 13:20:46;;;;;;;5.60;3.40;;;13.70;96.70;;;;;;5042802;28;20174;-84
2020/12/23 13:23:13;;;;;;;6.95;4.75;;;13.70;96.70;;;;;;5041591;28;20044;-84
2020/12/23 13:25:40;;;;;;;5.72;4.03;;;13.70;96.70;;;;;;5066541;28;20036;-84
2020/12/23 13:28:08;;;;;;;5.75;3.35;;;13.70;96.70;;;;;;5062631;28;20043;-83
2020/12/23 13:30:35;;;;;;;6.78;3.90;;;13.70;96.70;;;;;;5061427;28;20094;-83
2020/12/23 13:33:03;;;;;;;9.73;7.60;;;13.70;96.70;;;;;;5060139;28;20040;-81
2020/12/23 13:35:31;;;;;;;8.43;6.30;;;13.70;96.70;;;;;;5061861;28;20787;-84
2020/12/23 13:37:59;;;;;;;10.20;6.53;;;13.70;96.70;;;;;;5065120;28;20046;-84
2020/12/23 13:40:26;;;;;;;6.22;5.32;;;13.70;96.70;;;;;;5061205;28;20507;-83
2020/12/23 13:42:53;;;;;;;7.55;5.50;;;13.70;96.70;;;;;;5063396;28;20382;-84
2020/12/23 13:45:21;;;;;;;6.30;5.60;;;13.70;96.70;;;;;;5061660;28;20132;-84
2020/12/23 13:47:48;;;;;;;6.90;6.00;;;13.70;96.70;;;;;;5061378;28;20136;-83
2020/12/23 13:50:16;;;;;;;9.93;6.68;;;13.70;96.70;;;;;;5060681;28;20064;-83
2020/12/23 13:52:44;;;;;;;7.20;6.47;;;13.70;96.70;;;;;;5060015;28;20111;-84
2020/12/23 13:55:11;;;;;;;7.45;5.20;;;13.70;96.70;;;;;;5046558;28;20140;-83
2020/12/23 13:57:38;;;;;;;8.88;6.07;;;13.70;96.70;;;;;;5057660;28;20167;-84
2020/12/23 14:00:06;;;;;;;9.20;7.60;;;13.70;96.70;;;;;;5044133;28;20055;-84
2020/12/23 14:02:39;;;;;;;7.05;6.03;;;13.70;96.70;;;;;;5066526;28;20045;-84
2020/12/23 14:05:06;;;;;;;8.82;6.10;;;13.80;96.70;;;;;;5064685;28;20040;-83
2020/12/23 14:07:35;;;;;;;11.38;7.72;;;13.80;96.70;;;;;;5064320;28;20040;-84
2020/12/23 14:10:03;;;;;;;11.18;8.52;;;13.80;96.70;;;;;;5050151;28;20076;-84
2020/12/23 14:12:31;;;;;;;15.55;9.05;;;13.80;96.70;;;;;;5044231;28;20033;-83
2020/12/23 14:14:58;;;;;;;9.70;7.57;;;13.80;96.70;;;;;;5063281;28;20106;-83
2020/12/23 14:17:28;;;;;;;8.27;6.38;;;13.80;96.70;;;;;;5049764;28;20569;-83
2020/12/23 14:19:56;;;;;;;10.77;6.63;;;13.80;96.70;;;;;;5049379;28;20068;-82
2020/12/23 14:22:23;;;;;;;8.15;7.32;;;13.80;96.70;;;;;;5061078;28;20047;-83
2020/12/23 14:24:52;;;;;;;8.00;6.80;;;13.80;96.70;;;;;;5043418;28;20178;-83